Time;durP1;ratioP1;P1;durP2;ratioP2;P2;SDS_P1;SDS_P2;PMS_P1;PMS_P2;Temp;Humidity;BMP_temperature;BMP_pressure;BME280_temperature;BME280_humidity;BME280_pressure;Samples;Min_cycle;Max_cycle;Signal;HPM_P1;HPM_P2
2021/04/17 00:02:16;;;;;;;8.87;8.07;;;;;;;6.08;55.58;96021.66;5031296;28;20232;-82
2021/04/17 00:04:42;;;;;;;8.83;7.93;;;;;;;6.10;55.67;96020.56;5031810;28;20228;-81
2021/04/17 00:07:10;;;;;;;9.10;8.20;;;;;;;6.10;55.27;96017.22;5031450;28;20275;-81
2021/04/17 00:09:36;;;;;;;8.43;7.63;;;;;;;6.08;55.57;96012.25;5030872;28;20264;-81
2021/04/17 00:12:07;;;;;;;9.03;8.23;;;;;;;6.10;55.53;96010.34;5031858;28;20194;-82
2021/04/17 00:14:35;;;;;;;8.67;7.87;;;;;;;6.16;55.36;96016.63;5031088;28;20724;-80
2021/04/17 00:17:02;;;;;;;9.20;8.30;;;;;;;6.11;56.40;96011.16;5030933;28;20198;-80
2021/04/17 00:19:28;;;;;;;8.33;7.53;;;;;;;6.12;55.99;96011.03;5030131;28;20681;-82
2021/04/17 00:21:54;;;;;;;9.67;8.67;;;;;;;6.12;55.95;96010.22;5018699;28;20369;-82
2021/04/17 00:24:20;;;;;;;10.07;9.07;;;;;;;6.04;56.14;96004.97;5031078;28;20705;-82
2021/04/17 00:26:47;;;;;;;9.37;8.50;;;;;;;6.02;55.97;96006.88;5031211;28;20202;-81
2021/04/17 00:29:14;;;;;;;11.03;8.80;;;;;;;6.06;56.18;96000.53;5031702;28;20291;-81
2021/04/17 00:31:40;;;;;;;9.90;8.90;;;;;;;6.06;56.54;96001.34;5030916;28;20202;-81
2021/04/17 00:34:06;;;;;;;9.90;9.00;;;;;;;6.10;56.41;96002.69;5030227;28;20218;-80
2021/04/17 00:36:33;;;;;;;10.30;9.20;;;;;;;6.08;56.17;95996.91;5030337;28;20200;-80
2021/04/17 00:38:59;;;;;;;11.70;10.33;;;;;;;6.08;56.72;95993.53;5028797;28;20201;-81
2021/04/17 00:41:26;;;;;;;11.40;10.20;;;;;;;6.08;56.32;95991.78;5029223;28;20206;-81
2021/04/17 00:43:52;;;;;;;11.30;9.90;;;;;;;6.07;56.61;95986.81;5028991;28;20710;-81
2021/04/17 00:46:19;;;;;;;12.87;11.20;;;;;;;6.09;56.01;95983.19;5030056;28;20198;-80
2021/04/17 00:48:46;;;;;;;16.93;11.93;;;;;;;6.11;56.48;95985.59;5030129;28;20198;-80
2021/04/17 00:51:12;;;;;;;14.10;11.63;;;;;;;6.07;56.24;95979.16;5029535;28;20206;-81
2021/04/17 00:53:38;;;;;;;12.00;10.60;;;;;;;6.06;56.25;95974.97;5026994;28;20218;-80
2021/04/17 00:56:05;;;;;;;9.50;8.60;;;;;;;6.06;56.13;95980.09;5011944;28;20214;-80
2021/04/17 00:58:31;;;;;;;9.63;8.63;;;;;;;5.87;57.63;95973.25;5029010;28;20230;-80
2021/04/17 01:00:57;;;;;;;10.77;9.20;;;;;;;5.86;57.38;95975.00;5028971;28;20745;-81
2021/04/17 01:03:30;;;;;;;9.80;8.83;;;;;;;5.94;57.07;95976.09;5029557;28;20309;-80
2021/04/17 01:06:02;;;;;;;9.70;8.73;;;;;;;5.97;56.67;95975.78;5029476;28;20618;-80
2021/04/17 01:08:36;;;;;;;9.40;8.50;;;;;;;6.03;56.99;95965.03;5023979;28;20198;-80
2021/04/17 01:11:07;;;;;;;10.60;9.50;;;;;;;6.03;56.87;95970.94;5029060;28;20230;-80
2021/04/17 01:13:35;;;;;;;11.83;9.23;;;;;;;6.06;56.52;95965.56;5033249;28;20578;-82
2021/04/17 01:16:03;;;;;;;10.10;9.03;;;;;;;6.10;56.52;95974.56;5033191;28;20198;-80
2021/04/17 01:18:32;;;;;;;8.93;8.13;;;;;;;6.12;56.52;95972.69;5033772;28;20256;-80
2021/04/17 01:20:59;;;;;;;10.20;8.80;;;;;;;6.16;56.55;95963.75;5032842;28;20209;-80
2021/04/17 01:23:33;;;;;;;9.77;8.80;;;;;;;6.16;57.60;95968.06;5032903;28;20268;-81
2021/04/17 01:26:02;;;;;;;10.17;9.13;;;;;;;6.15;56.72;95972.41;5033261;28;20883;-81
2021/04/17 01:28:31;;;;;;;9.80;8.83;;;;;;;5.93;57.59;95961.72;5033506;28;20201;-81
2021/04/17 01:30:58;;;;;;;10.23;8.40;;;;;;;5.99;56.96;95958.56;5032902;28;20198;-81
2021/04/17 01:33:26;;;;;;;9.37;8.37;;;;;;;6.01;57.56;95966.91;5032860;28;20205;-81
2021/04/17 01:35:54;;;;;;;9.30;8.40;;;;;;;6.04;57.63;95961.53;5032460;28;20203;-82
2021/04/17 01:38:23;;;;;;;9.03;8.13;;;;;;;6.04;57.36;95961.53;5032269;28;20199;-81
2021/04/17 01:40:54;;;;;;;9.97;9.00;;;;;;;6.08;57.76;95955.19;5032833;28;20225;-80
2021/04/17 01:43:23;;;;;;;9.47;8.50;;;;;;;6.07;57.86;95958.69;5032450;28;20867;-81
2021/04/17 01:45:50;;;;;;;9.30;8.43;;;;;;;6.08;57.22;95961.13;5032817;28;20198;-82
2021/04/17 01:48:18;;;;;;;9.00;8.20;;;;;;;6.09;57.45;95955.06;5032604;28;20271;-82
2021/04/17 01:50:46;;;;;;;9.30;8.40;;;;;;;6.07;57.71;95962.06;5033129;28;20206;-81
2021/04/17 01:53:17;;;;;;;9.47;8.57;;;;;;;6.09;57.68;95957.63;5032823;28;20602;-82
2021/04/17 01:55:44;;;;;;;9.90;8.90;;;;;;;6.10;57.70;95961.78;5033355;28;20217;-80
2021/04/17 01:58:10;;;;;;;9.10;8.30;;;;;;;6.11;58.21;95949.81;5032568;28;20565;-81
2021/04/17 02:00:37;;;;;;;9.63;8.33;;;;;;;6.10;57.71;95955.88;5032690;28;20205;-80
2021/04/17 02:03:03;;;;;;;9.50;8.60;;;;;;;6.05;58.11;95948.59;5032363;28;20226;-81
2021/04/17 02:05:29;;;;;;;9.37;8.47;;;;;;;6.05;58.22;95943.50;5032902;28;20573;-81
2021/04/17 02:07:57;;;;;;;9.60;8.60;;;;;;;6.03;58.28;95947.13;5032396;28;20256;-79
2021/04/17 02:10:23;;;;;;;11.30;8.87;;;;;;;6.06;57.96;95946.84;5031686;28;20264;-80
2021/04/17 02:12:49;;;;;;;9.93;9.00;;;;;;;6.06;57.70;95949.41;5032238;28;20674;-82
2021/04/17 02:15:15;;;;;;;9.33;8.43;;;;;;;6.02;58.14;95945.53;5032636;28;20225;-81
2021/04/17 02:17:50;;;;;;;9.97;8.90;;;;;;;6.02;58.23;95942.97;5031917;28;20836;-81
2021/04/17 02:20:21;;;;;;;9.87;8.70;;;;;;;5.99;57.82;95948.34;5031931;28;20490;-81
2021/04/17 02:22:48;;;;;;;10.17;9.00;;;;;;;5.99;57.99;95948.34;5031735;28;20226;-80
2021/04/17 02:25:14;;;;;;;9.87;8.87;;;;;;;5.99;58.11;95940.69;5032188;28;20255;-81
2021/04/17 02:27:40;;;;;;;10.37;9.37;;;;;;;5.99;58.06;95943.25;5032035;28;20195;-81
2021/04/17 02:30:09;;;;;;;10.87;9.07;;;;;;;5.95;57.98;95941.94;5031668;28;20714;-80
2021/04/17 02:32:35;;;;;;;9.10;8.30;;;;;;;5.96;57.89;95938.44;5032215;28;20686;-81
2021/04/17 02:35:02;;;;;;;10.40;9.17;;;;;;;5.95;58.24;95940.19;5032104;28;20242;-80
2021/04/17 02:37:28;;;;;;;12.17;9.63;;;;;;;5.98;57.70;95936.50;5032373;28;20209;-81
2021/04/17 02:39:54;;;;;;;10.20;9.10;;;;;;;5.92;57.74;95940.44;5031823;28;20248;-80
2021/04/17 02:42:20;;;;;;;9.97;8.57;;;;;;;5.91;57.73;95940.59;5032127;28;20233;-79
2021/04/17 02:44:46;;;;;;;9.97;9.07;;;;;;;5.89;57.98;95938.16;5031732;28;20225;-81
2021/04/17 02:47:13;;;;;;;10.23;8.80;;;;;;;5.85;58.25;95924.84;5031319;28;20244;-80
2021/04/17 02:49:39;;;;;;;10.70;9.13;;;;;;;5.79;58.51;95929.69;5011906;28;20214;-81
2021/04/17 02:52:06;;;;;;;9.77;8.87;;;;;;;5.69;58.58;95931.47;5027923;28;20194;-81
2021/04/17 02:54:33;;;;;;;13.00;10.33;;;;;;;5.50;58.83;95932.31;5030682;28;20214;-79
2021/04/17 02:56:59;;;;;;;12.10;10.80;;;;;;;5.38;59.44;95933.41;5032049;28;20214;-81
2021/04/17 02:59:25;;;;;;;12.53;11.23;;;;;;;5.38;60.40;95918.91;5013791;28;20245;-81
2021/04/17 03:01:51;;;;;;;11.87;10.67;;;;;;;5.41;60.01;95931.34;5012125;28;20203;-80
2021/04/17 03:04:17;;;;;;;11.30;9.90;;;;;;;5.46;60.08;95921.56;5027946;28;20313;-82
2021/04/17 03:06:43;;;;;;;11.27;9.70;;;;;;;5.52;59.83;95921.00;5032296;28;20627;-80
2021/04/17 03:09:10;;;;;;;10.60;9.60;;;;;;;5.54;59.93;95928.53;5031730;28;20563;-81
2021/04/17 03:11:36;;;;;;;11.07;9.63;;;;;;;5.49;60.19;95920.47;5031384;28;20226;-81
2021/04/17 03:14:02;;;;;;;11.33;10.00;;;;;;;5.43;60.08;95924.38;5031677;28;20272;-81
2021/04/17 03:16:28;;;;;;;10.20;9.20;;;;;;;5.45;60.09;95914.84;5031481;28;20198;-80
2021/04/17 03:18:54;;;;;;;10.63;9.53;;;;;;;5.36;60.68;95915.66;5031364;28;20604;-81
2021/04/17 03:21:20;;;;;;;12.10;9.20;;;;;;;5.30;61.35;95923.06;5022082;28;20641;-81
2021/04/17 03:23:46;;;;;;;10.40;9.40;;;;;;;5.35;60.33;95913.25;5025430;28;20232;-80
2021/04/17 03:26:13;;;;;;;11.30;9.87;;;;;;;5.37;60.49;95909.63;5031426;28;20236;-81
2021/04/17 03:28:39;;;;;;;10.23;9.23;;;;;;;5.33;61.45;95915.94;5031401;28;20201;-82
2021/04/17 03:31:05;;;;;;;11.17;9.77;;;;;;;5.31;61.53;95915.25;5031074;28;20236;-80
2021/04/17 03:33:31;;;;;;;10.30;9.30;;;;;;;5.40;61.01;95911.88;5031294;28;20225;-80
2021/04/17 03:35:58;;;;;;;10.60;9.50;;;;;;;5.45;60.27;95904.63;5030787;28;20721;-82
2021/04/17 03:38:24;;;;;;;10.53;9.53;;;;;;;5.52;60.23;95904.88;5030619;28;20198;-82
2021/04/17 03:40:50;;;;;;;10.83;9.73;;;;;;;5.57;60.16;95901.94;5031495;28;20198;-82
2021/04/17 03:43:17;;;;;;;10.27;9.27;;;;;;;5.57;60.51;95904.47;5031034;28;20221;-82
2021/04/17 03:45:43;;;;;;;11.27;9.90;;;;;;;5.63;60.04;95901.34;5030890;28;20201;-80
2021/04/17 03:48:10;;;;;;;10.60;9.50;;;;;;;5.61;60.25;95896.38;5030773;28;20277;-80
2021/04/17 03:50:36;;;;;;;11.27;10.07;;;;;;;5.55;60.91;95910.53;5030650;28;20204;-79
2021/04/17 03:53:02;;;;;;;10.57;9.57;;;;;;;5.57;60.61;95912.16;5030836;28;20194;-81
2021/04/17 03:55:28;;;;;;;12.17;9.43;;;;;;;5.64;60.72;95915.75;5031426;28;20234;-80
2021/04/17 03:57:54;;;;;;;10.90;9.80;;;;;;;5.67;60.39;95911.16;5032002;28;20461;-81
2021/04/17 04:00:22;;;;;;;10.73;9.60;;;;;;;5.67;60.44;95915.47;5032267;28;20277;-82
2021/04/17 04:02:49;;;;;;;11.30;10.10;;;;;;;5.67;60.34;95916.28;5032770;28;20276;-81
2021/04/17 04:05:15;;;;;;;10.97;9.87;;;;;;;5.69;60.36;95923.81;5031962;28;20214;-81
2021/04/17 04:07:42;;;;;;;10.27;9.03;;;;;;;5.64;60.59;95934.41;5031995;28;20876;-82
2021/04/17 04:10:13;;;;;;;11.40;9.80;;;;;;;5.65;60.80;95927.56;5031499;28;20226;-81
2021/04/17 04:12:40;;;;;;;10.37;9.37;;;;;;;5.60;60.31;95930.53;5031766;28;20190;-81
2021/04/17 04:15:08;;;;;;;9.87;8.87;;;;;;;5.54;61.04;95937.00;5031694;28;20222;-81
2021/04/17 04:17:35;;;;;;;10.50;9.47;;;;;;;5.48;61.10;95929.06;5031342;28;20724;-82
2021/04/17 04:20:00;;;;;;;10.77;9.30;;;;;;;5.45;61.39;95929.34;5031489;28;20220;-81
2021/04/17 04:22:27;;;;;;;10.20;9.17;;;;;;;5.47;61.54;95935.13;5029747;28;20206;-81
2021/04/17 04:24:53;;;;;;;10.67;9.57;;;;;;;5.51;61.19;95931.38;5031605;28;20725;-80
2021/04/17 04:27:19;;;;;;;10.40;9.40;;;;;;;5.53;60.81;95926.94;5032219;28;20202;-80
2021/04/17 04:29:45;;;;;;;10.80;9.70;;;;;;;5.50;60.68;95928.00;5031551;28;20230;-82
2021/04/17 04:32:11;;;;;;;10.67;9.67;;;;;;;5.49;61.46;95933.25;5032028;28;20316;-81
2021/04/17 04:34:37;;;;;;;10.33;9.33;;;;;;;5.55;61.09;95930.97;5031902;28;20222;-80
2021/04/17 04:37:04;;;;;;;10.47;9.37;;;;;;;5.55;61.40;95935.25;5031674;28;20222;-80
2021/04/17 04:39:30;;;;;;;12.07;10.27;;;;;;;5.46;61.74;95926.66;5030736;28;20194;-81
2021/04/17 04:41:56;;;;;;;11.70;10.47;;;;;;;5.49;61.53;95928.94;5031345;28;20214;-81
2021/04/17 04:44:22;;;;;;;11.67;10.37;;;;;;;5.53;61.24;95932.03;5031180;28;20272;-81
2021/04/17 04:46:48;;;;;;;11.13;10.03;;;;;;;5.57;60.92;95938.50;5033439;28;20611;-81
2021/04/17 04:49:17;;;;;;;10.67;9.57;;;;;;;5.58;61.02;95939.28;5035047;28;20194;-82
2021/04/17 04:51:44;;;;;;;11.63;10.37;;;;;;;5.58;61.45;95936.75;5034959;28;20243;-80
2021/04/17 04:54:10;;;;;;;11.70;10.43;;;;;;;5.54;61.50;95943.88;5034868;28;20301;-81
2021/04/17 04:56:39;;;;;;;14.40;10.07;;;;;;;5.62;62.65;95946.53;5035176;28;20650;-83
2021/04/17 04:59:19;;;;;;;17.13;10.90;;;;;;;5.69;61.39;95952.72;5034520;28;20194;-81
2021/04/17 05:01:56;;;;;;;11.13;9.93;;;;;;;5.80;61.70;95949.97;5034752;28;20204;-82
2021/04/17 05:05:23;;;;;;;10.63;9.53;;;;;;;5.86;61.26;95938.41;5034895;28;20234;-81
2021/04/17 05:07:50;;;;;;;9.87;8.93;;;;;;;5.94;61.25;95946.22;5045797;28;20226;-82
2021/04/17 05:10:16;;;;;;;54.73;11.67;;;;;;;6.03;60.63;95939.47;5034548;28;20241;-83
2021/04/17 05:12:42;;;;;;;13.67;9.87;;;;;;;5.90;61.60;95942.34;5035322;28;20194;-82
2021/04/17 05:15:09;;;;;;;13.43;9.47;;;;;;;6.06;62.20;95942.56;5035674;28;20226;-82
2021/04/17 05:17:35;;;;;;;11.17;9.83;;;;;;;6.23;61.06;95939.25;5034763;28;20205;-82
2021/04/17 05:20:01;;;;;;;10.53;9.43;;;;;;;6.23;60.05;95935.91;5020668;28;20428;-81
2021/04/17 05:22:27;;;;;;;11.07;9.97;;;;;;;6.14;59.76;95944.41;5024650;28;20197;-80
2021/04/17 05:24:54;;;;;;;11.70;10.40;;;;;;;6.07;59.98;95945.91;5033539;28;20253;-82
2021/04/17 05:27:20;;;;;;;10.70;9.60;;;;;;;5.93;60.85;95936.97;5034984;28;20198;-82
2021/04/17 05:29:46;;;;;;;12.07;10.80;;;;;;;5.92;60.57;95940.44;5034182;28;20205;-81
2021/04/17 05:32:12;;;;;;;11.07;9.57;;;;;;;5.93;60.91;95941.25;5034917;28;20206;-81
2021/04/17 05:34:39;;;;;;;15.73;11.30;;;;;;;5.92;60.70;95940.44;5034081;28;20255;-81
2021/04/17 05:37:05;;;;;;;11.67;10.47;;;;;;;5.95;60.80;95945.28;5034839;28;20206;-83
2021/04/17 05:39:31;;;;;;;11.27;9.97;;;;;;;5.98;60.39;95933.97;5033939;28;20198;-82
2021/04/17 05:41:58;;;;;;;13.73;10.97;;;;;;;5.98;60.67;95941.63;5035992;28;20202;-82
2021/04/17 05:44:24;;;;;;;14.07;10.37;;;;;;;6.04;60.65;95946.19;5028547;28;20228;-81
2021/04/17 05:46:50;;;;;;;11.60;10.40;;;;;;;6.05;60.35;95948.59;5025375;28;20206;-82
2021/04/17 05:49:16;;;;;;;27.73;22.03;;;;;;;6.09;60.84;95949.16;5035028;28;20264;-81
2021/04/17 05:51:44;;;;;;;15.50;13.80;;;;;;;6.13;60.84;95948.72;5035477;28;20207;-83
2021/04/17 05:54:12;;;;;;;12.60;11.27;;;;;;;6.12;61.91;95948.88;5034202;28;20221;-83
2021/04/17 05:56:39;;;;;;;13.30;11.80;;;;;;;6.22;61.02;95955.53;5033774;28;20210;-83
2021/04/17 05:59:06;;;;;;;16.00;11.47;;;;;;;6.12;62.28;95959.09;5032391;28;20198;-79
2021/04/17 06:01:32;;;;;;;14.33;11.63;;;;;;;6.16;61.83;95966.31;5033751;28;20202;-82
2021/04/17 06:03:58;;;;;;;14.07;11.77;;;;;;;6.12;63.39;95967.56;5033817;28;20218;-80
2021/04/17 06:06:24;;;;;;;14.40;12.00;;;;;;;6.05;63.28;95958.84;5033073;28;20222;-82
2021/04/17 06:08:50;;;;;;;21.97;17.37;;;;;;;6.17;62.76;95965.38;5033283;28;20201;-82
2021/04/17 06:11:16;;;;;;;48.13;37.23;;;;;;;6.10;64.79;95966.09;5032912;28;20265;-82
2021/04/17 06:13:42;;;;;;;19.17;16.80;;;;;;;6.14;64.08;95962.31;5033378;28;20218;-82
2021/04/17 06:16:09;;;;;;;14.77;12.83;;;;;;;6.26;63.13;95965.50;5032899;28;20202;-82
2021/04/17 06:18:36;;;;;;;14.73;11.93;;;;;;;6.24;64.72;95968.19;5021877;28;20202;-82
2021/04/17 06:21:02;;;;;;;15.17;11.87;;;;;;;6.32;63.92;95965.75;5022209;28;20218;-81
2021/04/17 06:23:28;;;;;;;16.30;13.13;;;;;;;6.17;64.96;95965.38;5023351;28;20593;-82
2021/04/17 06:25:54;;;;;;;14.87;12.27;;;;;;;6.28;64.79;95966.97;5033232;28;20198;-80
2021/04/17 06:28:20;;;;;;;14.33;12.73;;;;;;;6.28;64.43;95969.53;5032319;28;20256;-80
2021/04/17 06:30:47;;;;;;;14.63;12.63;;;;;;;6.39;64.49;95963.41;5033185;28;20210;-82
2021/04/17 06:33:13;;;;;;;14.60;13.03;;;;;;;6.33;65.98;95964.81;5033759;28;20197;-81
2021/04/17 06:35:40;;;;;;;14.40;12.50;;;;;;;6.45;64.67;95965.41;5032559;28;20225;-82
2021/04/17 06:38:08;;;;;;;15.70;13.43;;;;;;;6.46;63.98;95962.72;5033075;28;20607;-82
2021/04/17 06:40:34;;;;;;;15.13;13.47;;;;;;;6.54;63.57;95962.03;5013059;28;20237;-82
2021/04/17 06:43:03;;;;;;;14.57;12.90;;;;;;;6.65;63.30;95961.81;5018823;28;20218;-82
2021/04/17 06:45:33;;;;;;;15.67;13.90;;;;;;;6.71;62.70;95961.25;5032303;28;20785;-82
2021/04/17 06:48:03;;;;;;;39.43;32.13;;;;;;;6.72;63.65;95956.94;5032601;28;20256;-81
2021/04/17 06:50:31;;;;;;;19.17;16.70;;;;;;;6.70;64.24;95957.09;5032411;28;20221;-80
2021/04/17 06:53:01;;;;;;;16.93;15.03;;;;;;;6.77;64.01;95959.84;5033052;28;20199;-82
2021/04/17 06:55:27;;;;;;;15.00;13.40;;;;;;;6.85;63.84;95949.72;5031690;28;20214;-80
2021/04/17 06:57:53;;;;;;;15.70;13.83;;;;;;;6.83;64.54;95946.50;5032623;28;20190;-81
2021/04/17 07:00:21;;;;;;;14.77;13.23;;;;;;;6.75;65.52;95954.06;5031906;28;20198;-81
2021/04/17 07:02:47;;;;;;;15.90;14.23;;;;;;;6.78;64.48;95949.47;5033286;28;20777;-83
2021/04/17 07:05:14;;;;;;;15.23;13.37;;;;;;;6.76;64.70;95953.13;5032237;28;20249;-82
2021/04/17 07:07:40;;;;;;;18.33;14.43;;;;;;;6.73;65.87;95953.44;5032053;28;20208;-81
2021/04/17 07:10:07;;;;;;;16.03;13.80;;;;;;;6.75;65.99;95952.31;5031787;28;20642;-79
2021/04/17 07:12:33;;;;;;;16.47;13.83;;;;;;;6.66;66.43;95954.94;5032573;28;20209;-82
2021/04/17 07:15:08;;;;;;;15.73;13.20;;;;;;;6.70;65.94;95951.97;5031723;28;20225;-81
2021/04/17 07:17:36;;;;;;;15.10;13.47;;;;;;;6.59;67.17;95955.50;5032087;28;20217;-81
2021/04/17 07:20:04;;;;;;;17.33;14.03;;;;;;;6.57;65.99;95954.84;5026335;28;20233;-80
2021/04/17 07:22:32;;;;;;;16.67;14.30;;;;;;;6.56;67.14;95953.22;5030556;28;20205;-81
2021/04/17 07:25:16;;;;;;;16.60;14.47;;;;;;;6.61;67.77;95955.38;5031820;28;20232;-80
2021/04/17 07:27:43;;;;;;;40.40;32.37;;;;;;;6.58;68.30;95956.47;5031907;28;20229;-82
2021/04/17 07:30:27;;;;;;;20.27;17.63;;;;;;;6.62;67.97;95958.72;5032861;28;20253;-82
2021/04/17 07:33:06;;;;;;;16.60;14.77;;;;;;;6.53;70.16;95957.84;5032552;28;20201;-82
2021/04/17 07:35:34;;;;;;;17.50;14.67;;;;;;;6.65;68.31;95956.69;5030697;28;20220;-82
2021/04/17 07:38:15;;;;;;;16.77;14.47;;;;;;;6.75;69.16;95962.56;5032127;28;20524;-81
2021/04/17 07:40:43;;;;;;;18.07;15.03;;;;;;;6.74;68.96;95960.94;5012240;28;20709;-82
2021/04/17 07:43:10;;;;;;;16.67;13.67;;;;;;;6.81;68.92;95963.75;5016869;28;20213;-81
2021/04/17 07:45:37;;;;;;;17.87;14.63;;;;;;;6.97;68.73;95965.66;5027563;28;20220;-80
2021/04/17 07:48:21;;;;;;;17.20;14.13;;;;;;;7.08;68.64;95957.78;5030880;28;20206;-80
2021/04/17 07:50:48;;;;;;;17.07;14.73;;;;;;;6.91;70.12;95964.50;5030574;28;20198;-80
2021/04/17 07:53:31;;;;;;;16.97;14.83;;;;;;;7.01;69.45;95970.34;5030269;28;20190;-79
2021/04/17 07:56:18;;;;;;;16.20;13.93;;;;;;;7.09;69.06;95969.63;5028139;28;20236;-80
2021/04/17 07:58:48;;;;;;;15.13;13.53;;;;;;;7.09;69.07;95970.44;5026307;28;20221;-79
2021/04/17 08:01:15;;;;;;;17.63;14.50;;;;;;;7.08;68.94;95961.16;5030267;28;20207;-79
2021/04/17 08:03:42;;;;;;;15.97;14.10;;;;;;;7.05;69.55;95961.44;5030777;28;20720;-81
2021/04/17 08:06:09;;;;;;;17.33;14.83;;;;;;;7.17;68.72;95951.78;5029009;28;20202;-80
2021/04/17 08:08:35;;;;;;;16.73;15.00;;;;;;;7.16;69.73;95958.66;5029708;28;20204;-79
2021/04/17 08:11:02;;;;;;;26.10;21.87;;;;;;;7.25;68.39;95954.44;5029950;28;20234;-78
2021/04/17 08:13:30;;;;;;;26.07;21.90;;;;;;;7.32;68.52;95947.75;5029755;28;20195;-78
2021/04/17 08:16:01;;;;;;;14.83;13.23;;;;;;;7.25;67.81;95952.66;5029199;28;20569;-80
2021/04/17 08:18:28;;;;;;;15.60;13.97;;;;;;;7.22;68.26;95954.72;5029884;28;20191;-80
2021/04/17 08:20:54;;;;;;;17.20;15.37;;;;;;;7.26;68.31;95951.72;5019204;28;20194;-80
2021/04/17 08:23:20;;;;;;;16.70;14.93;;;;;;;7.31;68.25;95948.72;5030149;28;20229;-78
2021/04/17 08:25:50;;;;;;;16.93;14.90;;;;;;;7.05;68.26;95956.31;5028852;28;20209;-78
2021/04/17 08:28:18;;;;;;;16.30;14.70;;;;;;;7.09;67.99;95949.97;5015327;28;20190;-80
2021/04/17 08:30:44;;;;;;;16.03;14.43;;;;;;;7.18;67.99;95956.75;5029593;28;20201;-80
2021/04/17 08:33:13;;;;;;;16.70;14.70;;;;;;;7.11;68.82;95957.50;5029658;28;20577;-80
2021/04/17 08:35:40;;;;;;;16.03;14.43;;;;;;;7.19;68.40;95957.56;5030647;28;20698;-82
2021/04/17 08:38:09;;;;;;;17.60;15.70;;;;;;;7.35;67.50;95949.22;5031539;28;20618;-82
2021/04/17 08:40:43;;;;;;;18.00;15.57;;;;;;;7.39;68.12;95946.22;5029770;28;20297;-83
2021/04/17 08:43:29;;;;;;;30.67;26.07;;;;;;;7.37;68.84;95949.88;5033816;28;20868;-82
2021/04/17 08:46:05;;;;;;;21.33;18.63;;;;;;;7.48;67.56;95945.34;5015453;28;20203;-83
2021/04/17 08:48:53;;;;;;;18.93;16.93;;;;;;;7.63;67.15;95938.72;5035467;28;20665;-83
2021/04/17 08:51:30;;;;;;;17.80;15.90;;;;;;;7.58;66.34;95945.22;5032070;28;20252;-83
2021/04/17 08:54:31;;;;;;;19.30;17.20;;;;;;;7.72;67.17;95941.31;5032552;28;20308;-82
2021/04/17 08:57:03;;;;;;;18.93;16.17;;;;;;;7.64;65.87;95934.41;5029904;28;20229;-81
2021/04/17 08:59:32;;;;;;;19.63;16.93;;;;;;;7.69;66.55;95929.63;5031917;28;20213;-82
2021/04/17 09:02:04;;;;;;;18.57;16.67;;;;;;;7.68;66.36;95929.78;5031398;28;20198;-83
2021/04/17 09:04:43;;;;;;;17.90;16.00;;;;;;;7.87;65.80;95932.97;5031465;28;20226;-82
2021/04/17 09:07:16;;;;;;;16.17;14.43;;;;;;;7.87;64.62;95932.16;5031784;28;20198;-82
2021/04/17 09:09:42;;;;;;;16.07;14.47;;;;;;;7.65;64.04;95946.25;5030960;28;20658;-83
2021/04/17 09:12:17;;;;;;;16.87;14.73;;;;;;;7.61;64.81;95938.06;5031813;28;20202;-83
2021/04/17 09:14:56;;;;;;;14.93;13.37;;;;;;;7.72;65.77;95934.44;5031427;28;20729;-84
2021/04/17 09:17:49;;;;;;;16.70;13.60;;;;;;;8.01;64.79;95938.47;5031170;28;20198;-83
2021/04/17 09:20:35;;;;;;;15.33;12.60;;;;;;;8.23;63.65;95930.25;5024907;28;20200;-84
2021/04/17 09:23:01;;;;;;;14.87;12.47;;;;;;;8.07;62.65;95933.56;5021042;28;20685;-83
2021/04/17 09:25:39;;;;;;;13.60;12.20;;;;;;;8.12;62.43;95931.31;5021853;28;20225;-83
2021/04/17 09:28:05;;;;;;;12.90;11.50;;;;;;;8.27;61.71;95921.31;5020778;28;20248;-82
2021/04/17 09:30:35;;;;;;;10.83;9.83;;;;;;;8.29;60.93;95924.50;5031493;28;20207;-82
2021/04/17 09:33:01;;;;;;;26.10;22.33;;;;;;;8.40;59.63;95924.28;5031393;28;20194;-83
2021/04/17 09:35:30;;;;;;;13.50;12.00;;;;;;;8.33;59.18;95920.69;5034104;28;20752;-82
2021/04/17 09:38:03;;;;;;;14.43;11.17;;;;;;;8.43;59.81;95916.28;5035046;28;20205;-82
2021/04/17 09:40:31;;;;;;;11.10;9.77;;;;;;;8.50;59.51;95914.66;5034874;28;20198;-82
2021/04/17 09:42:57;;;;;;;9.53;8.53;;;;;;;8.40;58.51;95920.91;5034508;28;20199;-83
2021/04/17 09:45:30;;;;;;;7.93;7.07;;;;;;;8.46;57.71;95915.16;5034292;28;20240;-83
2021/04/17 09:47:58;;;;;;;8.80;7.83;;;;;;;8.43;58.85;95912.91;5035488;28;20256;-83
2021/04/17 09:50:26;;;;;;;9.60;8.03;;;;;;;8.36;58.78;95915.28;5036162;28;20293;-81
2021/04/17 09:52:52;;;;;;;8.03;7.27;;;;;;;8.18;57.63;95909.38;5035204;28;20233;-81
2021/04/17 09:55:19;;;;;;;9.10;7.83;;;;;;;8.13;59.12;95912.41;5033262;28;20222;-83
2021/04/17 09:57:45;;;;;;;9.20;8.37;;;;;;;8.33;58.37;95913.00;5034202;28;20213;-82
2021/04/17 10:00:13;;;;;;;9.10;8.20;;;;;;;8.44;58.36;95906.81;5034401;28;20254;-82
2021/04/17 10:02:40;;;;;;;9.60;8.70;;;;;;;8.69;57.18;95903.34;5033759;28;20194;-83
2021/04/17 10:05:09;;;;;;;9.30;8.37;;;;;;;8.87;57.78;95903.22;5034044;28;20321;-82
2021/04/17 10:07:41;;;;;;;8.13;7.23;;;;;;;9.05;57.48;95898.75;5035089;28;20199;-82
2021/04/17 10:10:09;;;;;;;9.77;7.63;;;;;;;9.15;57.29;95896.03;5033645;28;20226;-81
2021/04/17 10:12:48;;;;;;;15.47;13.50;;;;;;;8.78;55.64;95889.56;5034069;28;20189;-82
2021/04/17 10:15:19;;;;;;;10.80;7.57;;;;;;;8.69;57.02;95889.69;5033740;28;20218;-82
2021/04/17 10:17:50;;;;;;;7.83;7.00;;;;;;;8.77;56.73;95879.47;5034069;28;20197;-82
2021/04/17 10:20:17;;;;;;;12.77;10.40;;;;;;;8.56;57.35;95879.88;5026233;28;20205;-82
2021/04/17 10:22:50;;;;;;;34.80;27.73;;;;;;;8.51;58.17;95875.22;5019041;28;20728;-83
2021/04/17 10:25:35;;;;;;;14.60;12.80;;;;;;;8.48;58.36;95877.28;5033252;28;20749;-83
2021/04/17 10:28:15;;;;;;;8.33;6.90;;;;;;;8.48;58.17;95878.09;5033927;28;20252;-83
2021/04/17 10:30:43;;;;;;;7.70;6.70;;;;;;;8.55;57.68;95879.09;5033969;28;20208;-81
2021/04/17 10:33:17;;;;;;;6.97;6.27;;;;;;;8.60;56.51;95868.38;5033865;28;20802;-81
2021/04/17 10:35:46;;;;;;;6.70;6.00;;;;;;;8.62;56.76;95874.94;5033465;28;20292;-81
2021/04/17 10:38:22;;;;;;;7.63;6.40;;;;;;;8.80;56.61;95869.69;5034284;28;20405;-82
2021/04/17 10:40:48;;;;;;;7.60;6.90;;;;;;;8.91;56.84;95866.00;5033145;28;20208;-81
2021/04/17 10:43:17;;;;;;;7.40;6.50;;;;;;;9.27;55.83;95857.00;5030081;28;20222;-81
2021/04/17 10:45:43;;;;;;;7.17;6.47;;;;;;;9.26;54.14;95852.84;5029682;28;20218;-82
2021/04/17 10:48:13;;;;;;;7.30;6.60;;;;;;;9.30;54.59;95859.25;5031678;28;20202;-82
2021/04/17 10:50:40;;;;;;;7.87;7.07;;;;;;;9.32;53.83;95851.41;5030090;28;20201;-82
2021/04/17 10:53:10;;;;;;;7.33;6.63;;;;;;;9.33;53.55;95851.22;5030996;28;20225;-81
2021/04/17 10:55:45;;;;;;;7.20;6.50;;;;;;;9.51;53.99;95852.81;5030133;28;20249;-81
2021/04/17 10:58:23;;;;;;;7.90;7.10;;;;;;;9.57;53.66;95855.56;5031359;28;20350;-82
2021/04/17 11:00:52;;;;;;;7.07;6.47;;;;;;;9.59;53.99;95845.91;5030874;28;20628;-82
2021/04/17 11:03:19;;;;;;;7.07;6.37;;;;;;;9.60;53.98;95841.56;5031067;28;20226;-82
2021/04/17 11:05:45;;;;;;;6.87;6.27;;;;;;;9.56;53.91;95843.66;5030319;28;20670;-82
2021/04/17 11:08:24;;;;;;;6.60;6.00;;;;;;;9.42;52.99;95839.19;5030199;28;20201;-83
2021/04/17 11:10:51;;;;;;;8.90;6.53;;;;;;;9.34;52.67;95840.00;5030353;28;20229;-82
2021/04/17 11:13:34;;;;;;;6.73;6.13;;;;;;;9.40;52.63;95830.03;5030843;28;20209;-82
2021/04/17 11:16:00;;;;;;;6.40;5.80;;;;;;;9.55;53.12;95831.78;5029770;28;20385;-82
2021/04/17 11:18:32;;;;;;;7.43;6.67;;;;;;;9.65;53.17;95829.00;5030474;28;20203;-81
2021/04/17 11:20:59;;;;;;;6.80;6.10;;;;;;;9.55;51.56;95820.69;5016617;28;20893;-82
2021/04/17 11:23:31;;;;;;;6.87;6.23;;;;;;;9.58;53.12;95825.50;5023450;28;20225;-82
2021/04/17 11:25:58;;;;;;;7.00;6.30;;;;;;;9.70;53.24;95819.84;5029629;28;20205;-82
2021/04/17 11:28:24;;;;;;;6.90;6.20;;;;;;;9.91;53.10;95816.72;5030859;28;20194;-82
2021/04/17 11:30:50;;;;;;;6.37;5.77;;;;;;;10.05;51.22;95815.22;5030852;28;20202;-83
2021/04/17 11:33:16;;;;;;;6.30;5.23;;;;;;;10.05;51.09;95810.06;5030648;28;20225;-83
2021/04/17 11:35:42;;;;;;;6.50;5.80;;;;;;;9.85;51.19;95811.44;5030696;28;20268;-81
2021/04/17 11:38:08;;;;;;;6.23;5.63;;;;;;;9.90;51.54;95816.88;5030803;28;20198;-82
2021/04/17 11:40:35;;;;;;;8.10;5.77;;;;;;;9.86;52.24;95813.03;5030729;28;20217;-82